createdAt,value
2024-05-09T00:00:43.762Z,5.28
2024-05-09T00:01:46.581Z,5.43
2024-05-09T00:02:49.076Z,5.32
2024-05-09T00:03:51.530Z,4.78
2024-05-09T00:04:54.017Z,4.80
2024-05-09T00:05:56.592Z,4.97
2024-05-09T00:06:59.152Z,4.90
2024-05-09T00:08:01.817Z,4.60
2024-05-09T00:09:04.502Z,4.90
2024-05-09T00:10:09.212Z,5.22
2024-05-09T00:11:16.399Z,4.97
2024-05-09T00:12:19.045Z,4.97
2024-05-09T00:13:21.511Z,5.18
2024-05-09T00:14:23.998Z,5.05
2024-05-09T00:15:26.495Z,5.30
2024-05-09T00:16:28.986Z,5.05
2024-05-09T00:17:31.621Z,5.15
2024-05-09T00:18:34.241Z,5.80
2024-05-09T00:19:36.728Z,5.32
2024-05-09T00:20:41.049Z,5.13
2024-05-09T00:21:44.241Z,5.25
2024-05-09T00:22:46.815Z,4.60
2024-05-09T00:23:49.235Z,4.10
2024-05-09T00:24:51.651Z,3.95
2024-05-09T00:25:54.074Z,4.05
2024-05-09T00:26:56.521Z,4.32
2024-05-09T00:27:58.976Z,4.82
2024-05-09T00:29:01.467Z,5.55
2024-05-09T00:30:04.365Z,4.95
2024-05-09T00:31:06.823Z,4.78
2024-05-09T00:32:09.272Z,4.63
2024-05-09T00:33:12.126Z,5.00
2024-05-09T00:34:14.675Z,5.05
2024-05-09T00:35:17.171Z,5.03
2024-05-09T00:36:19.717Z,4.10
2024-05-09T00:37:22.280Z,4.18
2024-05-09T00:38:24.813Z,3.47
2024-05-09T00:39:27.325Z,3.63
2024-05-09T00:40:40.853Z,3.75
2024-05-09T00:41:45.192Z,3.67
2024-05-09T00:42:47.744Z,4.38
2024-05-09T00:43:50.183Z,3.42
2024-05-09T00:44:52.615Z,3.13
2024-05-09T00:45:57.593Z,3.10
2024-05-09T00:47:00.324Z,3.30
2024-05-09T00:48:07.560Z,2.60
2024-05-09T00:49:11.992Z,3.00
2024-05-09T00:50:19.399Z,3.03
2024-05-09T00:52:28.704Z,3.08
2024-05-09T00:53:31.403Z,2.72
2024-05-09T00:54:34.182Z,2.85
2024-05-09T00:55:37.895Z,3.30
2024-05-09T00:56:41.840Z,3.65
2024-05-09T00:57:45.044Z,4.22
2024-05-09T00:58:48.034Z,4.28
2024-05-09T00:59:50.593Z,4.20
2024-05-09T01:00:53.505Z,3.78
2024-05-09T01:01:56.175Z,4.03
2024-05-09T01:02:58.802Z,4.80
2024-05-09T01:04:02.050Z,4.20
2024-05-09T01:05:05.032Z,4.15
2024-05-09T01:06:07.474Z,4.10
2024-05-09T01:07:11.293Z,3.40
2024-05-09T01:08:13.992Z,3.70
2024-05-09T01:09:16.459Z,3.90
2024-05-09T01:10:27.447Z,3.42
2024-05-09T01:11:39.054Z,3.67
2024-05-09T01:12:41.592Z,2.88
2024-05-09T01:13:47.298Z,2.78
2024-05-09T01:14:49.701Z,3.20
2024-05-09T01:15:54.194Z,3.13
2024-05-09T01:16:56.729Z,3.63
2024-05-09T01:18:01.709Z,2.78
2024-05-09T01:19:04.830Z,2.85
2024-05-09T01:20:10.734Z,2.83
2024-05-09T01:21:18.683Z,2.78
2024-05-09T01:22:21.762Z,2.70
2024-05-09T01:23:24.237Z,2.33
2024-05-09T01:24:26.807Z,2.80
2024-05-09T01:25:29.263Z,2.92
2024-05-09T01:26:31.725Z,2.92
2024-05-09T01:27:34.134Z,2.75
2024-05-09T01:28:36.528Z,2.35
2024-05-09T01:29:38.944Z,2.83
2024-05-09T01:30:41.369Z,2.72
2024-05-09T01:31:45.919Z,2.45
2024-05-09T01:33:51.194Z,2.53
2024-05-09T01:34:53.762Z,2.47
2024-05-09T01:35:56.180Z,2.80
2024-05-09T01:36:58.644Z,2.38
2024-05-09T01:38:01.112Z,2.15
2024-05-09T01:39:03.814Z,2.58
2024-05-09T01:40:12.189Z,2.55
2024-05-09T01:41:17.572Z,2.45
2024-05-09T01:42:20.021Z,2.58
2024-05-09T01:43:22.401Z,2.55
2024-05-09T01:44:24.878Z,2.70
2024-05-09T01:45:27.510Z,2.33
2024-05-09T01:46:29.919Z,2.50
2024-05-09T01:47:32.473Z,2.55
2024-05-09T01:48:35.019Z,2.00
2024-05-09T01:49:37.744Z,2.13
2024-05-09T01:50:42.576Z,2.67
2024-05-09T01:51:45.761Z,2.30
2024-05-09T01:52:48.141Z,2.08
2024-05-09T01:53:50.595Z,2.30
2024-05-09T01:54:53.036Z,2.78
2024-05-09T01:55:55.510Z,2.40
2024-05-09T01:56:57.982Z,2.83
2024-05-09T01:58:00.411Z,2.10
2024-05-09T01:59:02.913Z,2.50
2024-05-09T02:00:07.717Z,2.30
2024-05-09T02:01:10.313Z,2.50
2024-05-09T02:02:13.372Z,2.40
2024-05-09T02:03:17.637Z,2.25
2024-05-09T02:04:20.771Z,2.65
2024-05-09T02:05:23.452Z,2.42
2024-05-09T02:06:25.943Z,2.58
2024-05-09T02:07:28.432Z,2.35
2024-05-09T02:08:30.922Z,2.25
2024-05-09T02:09:33.452Z,2.45
2024-05-09T02:10:35.869Z,2.47
2024-05-09T02:11:44.819Z,2.33
2024-05-09T02:12:47.298Z,2.47
2024-05-09T02:13:49.719Z,1.95
2024-05-09T02:14:52.211Z,2.50
2024-05-09T02:15:56.173Z,2.45
2024-05-09T02:16:58.600Z,2.63
2024-05-09T02:18:01.237Z,2.03
2024-05-09T02:19:04.040Z,2.35
2024-05-09T02:20:10.747Z,2.45
2024-05-09T02:21:15.823Z,2.08
2024-05-09T02:22:18.402Z,2.40
2024-05-09T02:23:21.002Z,2.22
2024-05-09T02:24:23.428Z,2.30
2024-05-09T02:25:27.271Z,2.22
2024-05-09T02:26:29.714Z,2.40
2024-05-09T02:27:32.179Z,2.05
2024-05-09T02:28:34.639Z,2.30
2024-05-09T02:29:37.037Z,2.38
2024-05-09T02:30:41.601Z,2.25
2024-05-09T02:31:45.129Z,2.13
2024-05-09T02:32:48.004Z,2.30
2024-05-09T02:33:50.912Z,2.22
2024-05-09T02:34:53.530Z,2.22
2024-05-09T02:35:55.962Z,2.10
2024-05-09T02:36:58.446Z,2.63
2024-05-09T02:38:01.015Z,1.98
2024-05-09T02:39:03.570Z,1.92
2024-05-09T02:40:09.135Z,1.98
2024-05-09T02:41:13.938Z,1.92
2024-05-09T02:42:16.397Z,2.63
2024-05-09T02:43:18.857Z,2.42
2024-05-09T02:44:21.748Z,2.15
2024-05-09T02:45:25.061Z,1.95
2024-05-09T02:46:27.484Z,2.47
2024-05-09T02:47:30.071Z,2.22
2024-05-09T02:48:32.722Z,2.53
2024-05-09T02:49:35.299Z,2.40
2024-05-09T02:50:39.881Z,2.35
2024-05-09T02:51:42.801Z,2.22
2024-05-09T02:52:45.260Z,2.70
2024-05-09T02:53:47.769Z,2.20
2024-05-09T02:54:50.287Z,2.13
2024-05-09T02:55:52.703Z,2.17
2024-05-09T02:56:55.121Z,2.42
2024-05-09T02:57:57.599Z,2.17
2024-05-09T02:59:00.017Z,2.63
2024-05-09T03:00:03.661Z,2.65
2024-05-09T03:01:08.327Z,2.45
2024-05-09T03:02:10.957Z,2.63
2024-05-09T03:03:15.265Z,3.13
2024-05-09T03:04:19.030Z,2.83
2024-05-09T03:05:21.516Z,2.83
2024-05-09T03:06:23.927Z,2.95
2024-05-09T03:07:26.296Z,3.03
2024-05-09T03:08:28.879Z,2.40
2024-05-09T03:09:31.326Z,2.65
2024-05-09T03:10:36.610Z,2.60
2024-05-09T03:11:40.991Z,2.95
2024-05-09T03:12:43.642Z,2.03
2024-05-09T03:13:46.097Z,2.15
2024-05-09T03:14:50.583Z,2.45
2024-05-09T03:15:52.958Z,2.20
2024-05-09T03:16:55.341Z,1.98
2024-05-09T03:17:57.843Z,2.13
2024-05-09T03:19:00.357Z,2.05
2024-05-09T03:20:05.223Z,2.03
2024-05-09T03:21:09.358Z,1.92
2024-05-09T03:22:12.718Z,2.15
2024-05-09T03:23:15.407Z,2.42
2024-05-09T03:24:17.932Z,2.00
2024-05-09T03:25:20.451Z,2.17
2024-05-09T03:26:22.948Z,2.22
2024-05-09T03:27:25.568Z,2.60
2024-05-09T03:28:27.987Z,2.20
2024-05-09T03:29:30.499Z,2.25
2024-05-09T03:30:40.142Z,2.03
2024-05-09T03:31:45.297Z,2.15
2024-05-09T03:32:48.040Z,2.00
2024-05-09T03:33:50.834Z,2.25
2024-05-09T03:34:53.281Z,2.30
2024-05-09T03:35:55.698Z,2.17
2024-05-09T03:36:58.100Z,1.95
2024-05-09T03:38:00.586Z,2.03
2024-05-09T03:39:03.093Z,2.08
2024-05-09T03:40:11.801Z,2.00
2024-05-09T03:41:19.520Z,2.58
2024-05-09T03:42:21.947Z,1.90
2024-05-09T03:43:24.318Z,1.90
2024-05-09T03:44:26.800Z,2.10
2024-05-09T03:45:29.435Z,2.20
2024-05-09T03:46:31.878Z,2.03
2024-05-09T03:47:35.773Z,2.30
2024-05-09T03:48:38.409Z,2.13
2024-05-09T03:49:41.099Z,1.88
2024-05-09T03:50:43.647Z,2.10
2024-05-09T03:51:47.021Z,1.83
2024-05-09T03:52:49.535Z,2.45
2024-05-09T03:53:52.033Z,2.15
2024-05-09T03:54:54.443Z,1.77
2024-05-09T03:55:57.478Z,2.20
2024-05-09T03:56:59.955Z,1.98
2024-05-09T03:58:02.363Z,2.00
2024-05-09T03:59:04.767Z,1.90
2024-05-09T04:00:14.834Z,1.70
2024-05-09T04:01:27.456Z,2.45
2024-05-09T04:02:29.999Z,1.80
2024-05-09T04:03:34.303Z,2.10
2024-05-09T04:04:36.922Z,2.05
2024-05-09T04:05:44.341Z,1.90
2024-05-09T04:06:47.170Z,2.20
2024-05-09T04:07:49.554Z,1.73
2024-05-09T04:08:52.094Z,1.98
2024-05-09T04:09:54.541Z,1.90
2024-05-09T04:10:56.996Z,2.30
2024-05-09T04:11:59.583Z,1.92
2024-05-09T04:13:03.041Z,2.22
2024-05-09T04:14:05.791Z,2.22
2024-05-09T04:15:11.202Z,1.98
2024-05-09T04:16:15.143Z,1.90
2024-05-09T04:17:17.558Z,2.35
2024-05-09T04:18:19.988Z,2.10
2024-05-09T04:19:22.605Z,2.30
2024-05-09T04:20:35.818Z,1.83
2024-05-09T04:21:41.666Z,2.03
2024-05-09T04:22:44.129Z,2.10
2024-05-09T04:23:46.550Z,2.25
2024-05-09T04:24:48.906Z,2.13
2024-05-09T04:25:51.345Z,2.10
2024-05-09T04:26:53.891Z,2.13
2024-05-09T04:27:56.413Z,1.98
2024-05-09T04:28:58.942Z,2.33
2024-05-09T04:30:01.338Z,2.15
2024-05-09T04:31:03.784Z,2.40
2024-05-09T04:32:07.389Z,2.30
2024-05-09T04:33:12.266Z,2.33
2024-05-09T04:34:16.590Z,2.10
2024-05-09T04:35:21.334Z,2.38
2024-05-09T04:36:24.054Z,2.40
2024-05-09T04:37:26.602Z,2.30
2024-05-09T04:38:30.422Z,2.03
2024-05-09T04:39:32.865Z,2.05
2024-05-09T04:40:37.130Z,2.00
2024-05-09T04:41:40.284Z,2.72
2024-05-09T04:42:42.862Z,2.20
2024-05-09T04:43:45.300Z,2.03
2024-05-09T04:44:49.908Z,2.60
2024-05-09T04:46:54.641Z,2.25
2024-05-09T04:47:58.241Z,1.90
2024-05-09T04:49:01.068Z,2.22
2024-05-09T04:50:05.465Z,1.95
2024-05-09T04:51:09.831Z,2.03
2024-05-09T04:52:12.504Z,2.20
2024-05-09T04:53:18.143Z,2.30
2024-05-09T04:55:25.864Z,2.33
2024-05-09T04:56:28.301Z,2.05
2024-05-09T04:57:30.832Z,1.75
2024-05-09T04:58:33.306Z,2.17
2024-05-09T04:59:36.683Z,3.42
2024-05-09T05:00:40.696Z,2.40
2024-05-09T05:02:45.999Z,2.03
2024-05-09T05:03:48.646Z,2.45
2024-05-09T05:04:51.488Z,2.58
2024-05-09T05:05:54.191Z,2.28
2024-05-09T05:06:58.381Z,2.50
2024-05-09T05:08:02.178Z,2.53
2024-05-09T05:09:04.580Z,2.30
2024-05-09T05:10:09.354Z,2.17
2024-05-09T05:11:14.362Z,2.15
2024-05-09T05:12:35.675Z,1.95
2024-05-09T05:13:40.845Z,2.08
2024-05-09T05:14:43.909Z,2.67
2024-05-09T05:15:46.951Z,1.63
2024-05-09T05:16:49.498Z,2.35
2024-05-09T05:17:52.143Z,1.90
2024-05-09T05:18:54.838Z,2.30
2024-05-09T05:19:57.891Z,2.20
2024-05-09T05:21:00.370Z,2.30
2024-05-09T05:22:02.826Z,1.83
2024-05-09T05:23:08.427Z,2.15
2024-05-09T05:24:10.837Z,2.10
2024-05-09T05:25:13.310Z,2.00
2024-05-09T05:26:20.536Z,1.80
2024-05-09T05:27:23.097Z,2.20
2024-05-09T05:28:25.536Z,2.17
2024-05-09T05:29:28.005Z,2.17
2024-05-09T05:30:34.540Z,1.75
2024-05-09T05:31:37.546Z,1.92
2024-05-09T05:32:40.117Z,2.08
2024-05-09T05:33:42.597Z,1.67
2024-05-09T05:34:45.116Z,1.80
2024-05-09T05:35:47.709Z,2.00
2024-05-09T05:36:50.125Z,2.05
2024-05-09T05:37:52.517Z,1.98
2024-05-09T05:38:54.982Z,2.15
2024-05-09T05:39:58.409Z,2.13
2024-05-09T05:41:00.869Z,2.13
2024-05-09T05:42:03.314Z,1.65
2024-05-09T05:43:06.586Z,2.22
2024-05-09T05:44:11.379Z,2.22
2024-05-09T05:45:13.876Z,2.20
2024-05-09T05:46:16.406Z,1.85
2024-05-09T05:47:18.843Z,2.20
2024-05-09T05:48:21.560Z,2.08
2024-05-09T05:49:24.151Z,1.90
2024-05-09T05:50:32.845Z,2.20
2024-05-09T05:51:38.697Z,2.15
2024-05-09T05:52:41.073Z,1.70
2024-05-09T05:53:44.917Z,2.15
2024-05-09T05:54:48.773Z,2.20
2024-05-09T05:55:51.298Z,1.83
2024-05-09T05:56:53.690Z,1.70
2024-05-09T05:57:56.071Z,2.40
2024-05-09T05:58:58.542Z,2.15
2024-05-09T06:00:00.939Z,2.20
2024-05-09T06:01:03.353Z,2.03
2024-05-09T06:02:06.305Z,1.88
2024-05-09T06:03:10.226Z,1.83
2024-05-09T06:05:15.669Z,1.90
2024-05-09T06:06:18.121Z,2.17
2024-05-09T06:07:20.469Z,1.65
2024-05-09T06:08:23.716Z,1.63
2024-05-09T06:09:27.085Z,1.75
2024-05-09T06:10:37.627Z,2.40
2024-05-09T06:11:43.028Z,1.90
2024-05-09T06:12:45.509Z,1.85
2024-05-09T06:13:48.011Z,1.83
2024-05-09T06:14:50.454Z,2.05
2024-05-09T06:15:52.795Z,2.13
2024-05-09T06:16:58.117Z,2.00
2024-05-09T06:18:00.907Z,1.85
2024-05-09T06:19:03.766Z,2.10
2024-05-09T06:20:13.278Z,1.80
2024-05-09T06:21:19.486Z,1.95
2024-05-09T06:22:22.024Z,2.45
2024-05-09T06:23:24.441Z,2.03
2024-05-09T06:24:26.798Z,2.10
2024-05-09T06:25:29.253Z,2.10
2024-05-09T06:26:32.451Z,2.00
2024-05-09T06:27:34.969Z,1.70
2024-05-09T06:28:37.416Z,1.92
2024-05-09T06:29:39.916Z,1.90
2024-05-09T06:30:43.329Z,1.73
2024-05-09T06:31:46.546Z,2.25
2024-05-09T06:32:49.108Z,1.90
2024-05-09T06:33:51.737Z,1.98
2024-05-09T06:34:54.357Z,2.22
2024-05-09T06:35:59.669Z,2.35
2024-05-09T06:37:02.077Z,1.90
2024-05-09T06:38:05.058Z,1.63
2024-05-09T06:39:10.248Z,1.90
2024-05-09T06:40:17.390Z,2.25
2024-05-09T06:41:19.929Z,2.10
2024-05-09T06:42:22.358Z,1.88
2024-05-09T06:43:24.723Z,1.73
2024-05-09T06:44:27.263Z,2.03
2024-05-09T06:45:29.826Z,1.42
2024-05-09T06:46:32.260Z,1.70
2024-05-09T06:47:34.809Z,1.88
2024-05-09T06:48:37.638Z,2.08
2024-05-09T06:49:41.550Z,1.88
2024-05-09T06:50:44.386Z,1.77
2024-05-09T06:51:46.875Z,1.80
2024-05-09T06:52:49.287Z,1.80
2024-05-09T06:53:51.725Z,1.90
2024-05-09T06:54:54.174Z,1.80
2024-05-09T06:55:56.631Z,1.55
2024-05-09T06:56:59.041Z,1.70
2024-05-09T06:58:01.476Z,1.73
2024-05-09T06:59:04.009Z,2.10
2024-05-09T07:00:10.297Z,1.58
2024-05-09T07:01:15.098Z,2.08
2024-05-09T07:02:17.593Z,1.70
2024-05-09T07:03:20.265Z,2.13
2024-05-09T07:04:22.937Z,1.63
2024-05-09T07:05:25.742Z,1.67
2024-05-09T07:06:28.341Z,2.35
2024-05-09T07:07:30.782Z,2.13
2024-05-09T07:08:33.346Z,2.13
2024-05-09T07:09:36.178Z,1.80
2024-05-09T07:10:38.767Z,1.80
2024-05-09T07:11:41.646Z,1.60
2024-05-09T07:12:44.209Z,2.28
2024-05-09T07:13:46.791Z,2.10
2024-05-09T07:14:49.252Z,1.92
2024-05-09T07:15:51.648Z,1.73
2024-05-09T07:16:54.218Z,1.40
2024-05-09T07:17:56.924Z,2.10
2024-05-09T07:18:59.656Z,1.83
2024-05-09T07:20:02.305Z,2.50
2024-05-09T07:21:05.226Z,1.92
2024-05-09T07:22:07.670Z,1.85
2024-05-09T07:23:10.967Z,1.80
2024-05-09T07:24:13.498Z,1.83
2024-05-09T07:25:15.916Z,2.17
2024-05-09T07:26:18.675Z,2.00
2024-05-09T07:27:21.172Z,1.95
2024-05-09T07:28:23.583Z,2.00
2024-05-09T07:29:26.045Z,2.13
2024-05-09T07:30:33.433Z,1.60
2024-05-09T07:31:37.174Z,1.85
2024-05-09T07:32:39.782Z,1.80
2024-05-09T07:33:42.470Z,1.83
2024-05-09T07:34:45.122Z,1.88
2024-05-09T07:35:47.719Z,1.85
2024-05-09T07:36:50.147Z,1.92
2024-05-09T07:37:52.662Z,1.95
2024-05-09T07:38:55.127Z,2.00
2024-05-09T07:39:57.545Z,2.20
2024-05-09T07:41:00.116Z,2.03
2024-05-09T07:42:02.584Z,2.10
2024-05-09T07:43:05.420Z,2.22
2024-05-09T07:44:07.872Z,1.90
2024-05-09T07:45:29.639Z,1.70
2024-05-09T07:49:11.911Z,1.77
2024-05-09T07:50:53.215Z,1.90
2024-05-09T07:53:08.288Z,1.50
2024-05-09T07:53:35.489Z,1.50
2024-05-09T07:54:16.276Z,1.75
2024-05-09T07:55:19.145Z,1.80
2024-05-09T07:56:23.331Z,2.55
2024-05-09T07:57:26.719Z,1.95
2024-05-09T07:58:29.263Z,1.85
2024-05-09T07:59:35.056Z,1.48
2024-05-09T08:00:39.617Z,1.80
2024-05-09T08:01:42.265Z,1.90
2024-05-09T08:02:44.958Z,1.58
2024-05-09T08:03:47.746Z,1.88
2024-05-09T08:04:50.283Z,1.92
2024-05-09T08:05:52.942Z,1.42
2024-05-09T08:06:55.619Z,1.73
2024-05-09T08:07:58.071Z,1.40
2024-05-09T08:09:05.318Z,1.77
2024-05-09T08:10:12.896Z,1.38
2024-05-09T08:11:17.820Z,1.50
2024-05-09T08:12:20.266Z,1.90
2024-05-09T08:13:23.071Z,1.60
2024-05-09T08:14:25.609Z,1.52
2024-05-09T08:15:28.265Z,1.70
2024-05-09T08:16:30.889Z,1.40
2024-05-09T08:17:33.482Z,1.40
2024-05-09T08:18:36.158Z,1.60
2024-05-09T08:19:40.915Z,1.50
2024-05-09T08:20:43.465Z,2.00
2024-05-09T08:21:45.908Z,1.20
2024-05-09T08:22:48.369Z,1.58
2024-05-09T08:23:50.748Z,1.75
2024-05-09T08:24:53.212Z,1.75
2024-05-09T08:25:55.599Z,1.65
2024-05-09T08:26:57.986Z,1.58
2024-05-09T08:28:00.469Z,1.50
2024-05-09T08:29:03.482Z,2.00
2024-05-09T08:30:08.022Z,1.30
2024-05-09T08:31:12.867Z,1.35
2024-05-09T08:32:15.404Z,1.35
2024-05-09T08:33:18.082Z,1.73
2024-05-09T08:34:20.877Z,1.58
2024-05-09T08:35:23.394Z,2.13
2024-05-09T08:36:25.773Z,1.67
2024-05-09T08:37:32.813Z,1.33
2024-05-09T08:38:39.334Z,1.70
2024-05-09T08:39:41.767Z,1.70
2024-05-09T08:40:44.416Z,1.67
2024-05-09T08:41:50.066Z,1.52
2024-05-09T08:42:56.277Z,1.60
2024-05-09T08:43:58.850Z,1.90
2024-05-09T08:45:01.781Z,1.42
2024-05-09T08:46:04.870Z,1.13
2024-05-09T08:47:09.766Z,1.30
2024-05-09T08:48:14.545Z,1.60
2024-05-09T08:49:18.501Z,1.60
2024-05-09T08:50:31.644Z,1.42
2024-05-09T08:51:40.467Z,1.60
2024-05-09T08:52:43.256Z,1.50
2024-05-09T08:53:45.646Z,1.45
2024-05-09T08:54:48.139Z,1.38
2024-05-09T08:55:51.625Z,1.40
2024-05-09T08:56:54.109Z,1.45
2024-05-09T08:57:56.602Z,1.42
2024-05-09T08:59:01.387Z,1.60
2024-05-09T09:00:09.945Z,1.40
2024-05-09T09:01:15.985Z,1.45
2024-05-09T09:02:19.463Z,1.90
2024-05-09T09:03:25.486Z,1.50
2024-05-09T09:04:28.913Z,1.63
2024-05-09T09:05:32.276Z,1.63
2024-05-09T09:06:35.050Z,1.60
2024-05-09T09:07:39.124Z,1.60
2024-05-09T09:08:41.562Z,1.60
2024-05-09T09:09:45.466Z,1.58
2024-05-09T09:10:48.048Z,1.70
2024-05-09T09:11:50.621Z,1.42
2024-05-09T09:12:59.820Z,1.40
2024-05-09T09:14:02.368Z,1.35
2024-05-09T09:15:05.013Z,1.45
2024-05-09T09:16:07.789Z,1.20
2024-05-09T09:17:16.765Z,1.52
2024-05-09T09:18:19.450Z,1.42
2024-05-09T09:19:23.270Z,1.63
2024-05-09T09:20:34.106Z,1.45
2024-05-09T09:21:39.130Z,1.80
2024-05-09T09:22:41.537Z,1.65
2024-05-09T09:23:43.925Z,1.50
2024-05-09T09:24:46.508Z,1.70
2024-05-09T09:25:49.084Z,1.90
2024-05-09T09:26:51.543Z,1.63
2024-05-09T09:27:54.047Z,2.00
2024-05-09T09:29:00.900Z,1.83
2024-05-09T09:30:03.665Z,1.63
2024-05-09T09:31:07.002Z,1.40
2024-05-09T09:32:10.771Z,1.50
2024-05-09T09:33:13.468Z,1.70
2024-05-09T09:34:16.227Z,1.58
2024-05-09T09:35:18.803Z,1.50
2024-05-09T09:36:21.180Z,1.52
2024-05-09T09:37:28.952Z,1.80
2024-05-09T09:38:32.618Z,1.65
2024-05-09T09:39:36.669Z,1.50
2024-05-09T09:40:46.836Z,1.55
2024-05-09T09:41:52.278Z,1.70
2024-05-09T09:42:57.824Z,1.67
2024-05-09T09:44:00.968Z,1.50
2024-05-09T09:45:05.566Z,2.00
2024-05-09T09:46:12.291Z,1.55
2024-05-09T09:47:15.851Z,1.55
2024-05-09T09:48:20.364Z,2.20
2024-05-09T09:49:32.995Z,1.58
2024-05-09T09:50:37.033Z,1.40
2024-05-09T09:51:43.776Z,1.70
2024-05-09T09:52:46.869Z,1.50
2024-05-09T09:53:49.907Z,1.70
2024-05-09T09:54:52.578Z,1.80
2024-05-09T09:55:56.323Z,1.60
2024-05-09T09:56:58.720Z,1.90
2024-05-09T09:58:01.415Z,1.60
2024-05-09T09:59:04.888Z,1.58
2024-05-09T10:00:11.761Z,1.50
2024-05-09T10:01:14.598Z,1.42
2024-05-09T10:02:17.341Z,1.60
2024-05-09T10:03:20.024Z,1.52
2024-05-09T10:04:22.773Z,1.60
2024-05-09T10:05:25.927Z,1.83
2024-05-09T10:06:29.160Z,1.58
2024-05-09T10:07:31.951Z,1.60
2024-05-09T10:08:35.193Z,1.92
2024-05-09T10:09:37.638Z,1.80
2024-05-09T10:10:40.297Z,1.52
2024-05-09T10:11:49.093Z,1.70
2024-05-09T10:12:59.788Z,1.50
2024-05-09T10:14:02.357Z,1.60
2024-05-09T10:15:11.397Z,1.52
2024-05-09T10:16:20.699Z,1.40
2024-05-09T10:17:23.408Z,2.00
2024-05-09T10:18:36.652Z,1.35
2024-05-09T10:19:39.155Z,1.50
2024-05-09T10:20:42.317Z,1.65
2024-05-09T10:21:47.618Z,1.40
2024-05-09T10:22:50.708Z,1.50
2024-05-09T10:24:07.300Z,1.60
2024-05-09T10:25:09.920Z,1.50
2024-05-09T10:26:12.519Z,1.33
2024-05-09T10:27:15.619Z,1.38
2024-05-09T10:28:18.046Z,1.40
2024-05-09T10:29:21.007Z,1.30
2024-05-09T10:31:30.056Z,1.40
2024-05-09T10:32:38.919Z,1.35
2024-05-09T10:33:52.394Z,1.15
2024-05-09T10:35:07.077Z,1.40
2024-05-09T10:36:29.132Z,1.33
2024-05-09T10:37:32.068Z,1.30
2024-05-09T10:38:34.599Z,1.35
2024-05-09T10:39:40.026Z,1.30
2024-05-09T10:40:42.945Z,1.50
2024-05-09T10:41:45.448Z,1.63
2024-05-09T10:42:48.053Z,1.60
2024-05-09T10:43:51.086Z,1.27
2024-05-09T10:44:53.693Z,1.27
2024-05-09T10:45:56.165Z,1.17
2024-05-09T10:46:58.601Z,1.30
2024-05-09T10:48:01.280Z,1.35
2024-05-09T10:49:06.308Z,1.25
2024-05-09T10:50:18.475Z,1.30
2024-05-09T10:51:27.996Z,1.50
2024-05-09T10:52:30.494Z,1.30
2024-05-09T10:53:40.883Z,1.65
2024-05-09T10:54:43.338Z,1.60
2024-05-09T10:55:59.025Z,1.60
2024-05-09T10:57:01.479Z,1.38
2024-05-09T10:58:04.080Z,1.40
2024-05-09T10:59:06.559Z,1.10
2024-05-09T11:00:15.797Z,1.70
2024-05-09T11:01:25.401Z,1.23
2024-05-09T11:02:28.348Z,1.27
2024-05-09T11:03:31.113Z,1.50
2024-05-09T11:04:34.419Z,1.30
2024-05-09T11:05:37.242Z,1.40
2024-05-09T11:06:40.157Z,1.30
2024-05-09T11:07:42.641Z,1.30
2024-05-09T11:08:46.204Z,1.60
2024-05-09T11:09:49.083Z,1.33
2024-05-09T11:10:53.218Z,1.50
2024-05-09T11:11:55.895Z,1.48
2024-05-09T11:12:58.368Z,1.27
2024-05-09T11:14:00.818Z,1.42
2024-05-09T11:15:03.344Z,1.15
2024-05-09T11:16:17.618Z,1.20
2024-05-09T11:17:20.257Z,1.35
2024-05-09T11:18:25.883Z,1.23
2024-05-09T11:19:42.179Z,1.40
2024-05-09T11:20:44.717Z,1.60
2024-05-09T11:21:51.809Z,1.48
2024-05-09T11:22:54.359Z,1.50
2024-05-09T11:23:57.372Z,1.45
2024-05-09T11:24:59.889Z,1.40
2024-05-09T11:26:02.410Z,2.55
2024-05-09T11:27:05.855Z,1.23
2024-05-09T11:28:08.419Z,1.48
2024-05-09T11:29:10.885Z,1.48
2024-05-09T11:30:26.886Z,2.13
2024-05-09T11:31:45.616Z,1.50
2024-05-09T11:32:48.353Z,1.30
2024-05-09T11:33:54.114Z,1.40
2024-05-09T11:34:56.570Z,1.70
2024-05-09T11:35:58.995Z,1.42
2024-05-09T11:37:01.576Z,1.30
2024-05-09T11:38:04.512Z,1.55
2024-05-09T11:39:07.041Z,1.48
2024-05-09T11:40:16.791Z,1.60
2024-05-09T11:41:24.462Z,1.55
2024-05-09T11:42:26.941Z,1.60
2024-05-09T11:43:29.494Z,1.25
2024-05-09T11:44:32.109Z,1.50
2024-05-09T11:45:34.830Z,1.77
2024-05-09T11:46:37.288Z,1.83
2024-05-09T11:47:40.023Z,1.70
2024-05-09T11:48:42.800Z,1.60
2024-05-09T11:49:45.327Z,1.40
2024-05-09T11:50:47.762Z,1.60
2024-05-09T11:51:50.248Z,1.33
2024-05-09T11:52:52.716Z,1.45
2024-05-09T11:53:55.227Z,1.30
2024-05-09T11:54:57.764Z,1.10
2024-05-09T11:56:00.274Z,1.33
2024-05-09T11:57:02.708Z,1.75
2024-05-09T11:58:05.600Z,1.30
2024-05-09T11:59:08.217Z,1.42
2024-05-09T12:00:14.948Z,1.70
2024-05-09T12:01:21.338Z,1.73
2024-05-09T12:02:25.147Z,1.50
2024-05-09T12:03:27.768Z,1.50
2024-05-09T12:04:30.381Z,1.40
2024-05-09T12:05:34.006Z,1.75
2024-05-09T12:06:38.049Z,1.60
2024-05-09T12:07:40.584Z,1.58
2024-05-09T12:08:43.043Z,1.45
2024-05-09T12:09:45.606Z,1.58
2024-05-09T12:10:48.270Z,1.33
2024-05-09T12:11:50.826Z,1.42
2024-05-09T12:12:54.018Z,1.52
2024-05-09T12:13:56.478Z,1.67
2024-05-09T12:14:58.928Z,1.40
2024-05-09T12:16:01.434Z,1.42
2024-05-09T12:17:05.771Z,1.52
2024-05-09T12:18:08.692Z,1.38
2024-05-09T12:19:11.239Z,1.50
2024-05-09T12:20:21.318Z,1.38
2024-05-09T12:21:31.118Z,1.35
2024-05-09T12:22:33.584Z,1.52
2024-05-09T12:23:35.939Z,1.60
2024-05-09T12:24:38.377Z,1.40
2024-05-09T12:25:40.929Z,1.60
2024-05-09T12:26:43.430Z,1.50
2024-05-09T12:27:46.088Z,1.40
2024-05-09T12:28:48.684Z,1.30
2024-05-09T12:29:51.162Z,1.35
2024-05-09T12:30:53.574Z,1.40
2024-05-09T12:31:56.124Z,1.55
2024-05-09T12:32:58.608Z,1.50
2024-05-09T12:34:01.342Z,1.25
2024-05-09T12:35:04.013Z,1.33
2024-05-09T12:36:06.826Z,1.58
2024-05-09T12:37:09.392Z,1.52
2024-05-09T12:38:11.899Z,1.33
2024-05-09T12:39:14.336Z,1.90
2024-05-09T12:40:23.182Z,1.52
2024-05-09T12:41:33.873Z,1.50
2024-05-09T12:42:36.380Z,1.33
2024-05-09T12:43:38.851Z,1.60
2024-05-09T12:44:41.316Z,1.52
2024-05-09T12:45:43.840Z,1.23
2024-05-09T12:46:46.322Z,1.50
2024-05-09T12:47:48.760Z,1.30
2024-05-09T12:48:52.095Z,1.48
2024-05-09T12:49:54.846Z,1.30
2024-05-09T12:50:57.870Z,1.30
2024-05-09T12:52:00.536Z,1.52
2024-05-09T12:53:04.208Z,1.42
2024-05-09T12:54:07.207Z,1.40
2024-05-09T12:55:11.011Z,1.45
2024-05-09T12:56:13.500Z,1.40
2024-05-09T12:57:16.016Z,1.50
2024-05-09T12:58:18.766Z,1.30
2024-05-09T12:59:21.215Z,1.50
2024-05-09T13:00:28.339Z,1.40
2024-05-09T13:01:36.149Z,1.33
2024-05-09T13:02:38.813Z,1.23
2024-05-09T13:03:41.466Z,1.40
2024-05-09T13:04:44.074Z,1.20
2024-05-09T13:05:46.848Z,1.42
2024-05-09T13:06:49.495Z,1.30
2024-05-09T13:07:52.024Z,1.70
2024-05-09T13:08:54.493Z,1.33
2024-05-09T13:09:56.882Z,1.50
2024-05-09T13:10:59.375Z,1.42
2024-05-09T13:12:01.897Z,1.15
2024-05-09T13:13:04.602Z,1.50
2024-05-09T13:14:07.146Z,1.67
2024-05-09T13:15:09.577Z,1.40
2024-05-09T13:16:12.022Z,1.17
2024-05-09T13:17:14.422Z,1.23
2024-05-09T13:18:16.998Z,1.88
2024-05-09T13:19:19.449Z,1.45
2024-05-09T13:20:29.329Z,1.50
2024-05-09T13:21:35.573Z,1.27
2024-05-09T13:22:39.179Z,1.45
2024-05-09T13:23:41.661Z,1.85
2024-05-09T13:24:44.103Z,1.58
2024-05-09T13:25:46.534Z,1.60
2024-05-09T13:26:48.960Z,1.40
2024-05-09T13:27:51.398Z,1.92
2024-05-09T13:28:53.814Z,1.55
2024-05-09T13:29:57.563Z,1.42
2024-05-09T13:31:00.080Z,1.40
2024-05-09T13:32:02.571Z,1.20
2024-05-09T13:33:05.535Z,1.33
2024-05-09T13:34:08.468Z,1.40
2024-05-09T13:35:11.021Z,1.42
2024-05-09T13:36:13.579Z,1.33
2024-05-09T13:37:16.081Z,1.70
2024-05-09T13:38:20.144Z,1.33
2024-05-09T13:39:22.834Z,1.60
2024-05-09T13:40:32.231Z,1.60
2024-05-09T13:41:37.169Z,1.30
2024-05-09T13:42:39.602Z,1.20
2024-05-09T13:43:41.995Z,1.23
2024-05-09T13:44:44.409Z,1.27
2024-05-09T13:45:46.993Z,2.25
2024-05-09T13:46:49.457Z,1.50
2024-05-09T13:47:52.049Z,1.20
2024-05-09T13:48:54.802Z,1.17
2024-05-09T13:49:57.335Z,1.27
2024-05-09T13:50:59.787Z,1.35
2024-05-09T13:52:02.194Z,0.90
2024-05-09T13:53:07.038Z,1.20
2024-05-09T13:54:10.626Z,1.40
2024-05-09T13:55:13.144Z,1.33
2024-05-09T13:56:15.584Z,1.60
2024-05-09T13:57:18.460Z,1.13
2024-05-09T13:58:21.179Z,1.30
2024-05-09T13:59:23.666Z,1.30
2024-05-09T14:00:38.208Z,1.35
2024-05-09T14:01:47.276Z,1.30
2024-05-09T14:02:49.739Z,1.52
2024-05-09T14:03:52.456Z,1.30
2024-05-09T14:04:55.234Z,1.20
2024-05-09T14:05:58.102Z,1.25
2024-05-09T14:07:00.839Z,1.27
2024-05-09T14:08:03.478Z,1.35
2024-05-09T14:09:06.043Z,1.30
2024-05-09T14:10:19.450Z,1.20
2024-05-09T14:11:25.536Z,1.17
2024-05-09T14:12:28.050Z,1.23
2024-05-09T14:13:30.539Z,1.33
2024-05-09T14:14:32.923Z,1.40
2024-05-09T14:15:35.376Z,1.23
2024-05-09T14:16:39.364Z,1.48
2024-05-09T14:17:41.940Z,1.40
2024-05-09T14:18:44.396Z,1.25